Time;durP1;ratioP1;P1;durP2;ratioP2;P2;SDS_P1;SDS_P2;PMS_P1;PMS_P2;Temp;Humidity;BMP_temperature;BMP_pressure;BME280_temperature;BME280_humidity;BME280_pressure;Samples;Min_cycle;Max_cycle;Signal;HPM_P1;HPM_P2
2023/12/05 05:32:30;;;;;;;0.10;0.10;;;6.40;81.20;;;;;;5020623;28;20120;-82
2023/12/05 05:34:55;;;;;;;0.10;0.10;;;6.40;81.40;;;;;;5031025;28;20060;-83
2023/12/05 05:37:21;;;;;;;0.10;0.10;;;6.40;81.30;;;;;;5033301;28;20056;-79
2023/12/05 05:39:47;;;;;;;0.10;0.10;;;6.40;81.40;;;;;;5015697;28;20030;-81
2023/12/05 05:42:14;;;;;;;0.10;0.10;;;6.40;81.50;;;;;;5033905;28;20038;-81
2023/12/05 05:44:39;;;;;;;0.20;0.20;;;6.40;81.60;;;;;;5033278;28;20587;-81
2023/12/05 05:47:05;;;;;;;0.10;0.10;;;6.40;81.50;;;;;;5033676;28;20029;-81
2023/12/05 05:49:31;;;;;;;0.10;0.10;;;6.40;81.50;;;;;;5015858;28;20025;-81
2023/12/05 05:51:56;;;;;;;0.10;0.10;;;6.30;81.50;;;;;;5033039;28;20048;-81
2023/12/05 05:54:22;;;;;;;0.10;0.10;;;6.40;81.70;;;;;;5033776;28;20644;-81
2023/12/05 05:56:48;;;;;;;0.10;0.10;;;6.40;81.60;;;;;;5015822;28;20060;-81
2023/12/05 05:59:13;;;;;;;0.10;0.10;;;6.40;81.60;;;;;;5032724;28;20056;-77
2023/12/05 06:01:39;;;;;;;0.10;0.10;;;6.40;81.60;;;;;;5012646;28;20087;-76
2023/12/05 06:04:05;;;;;;;0.10;0.10;;;6.40;81.70;;;;;;5032980;28;20085;-78
2023/12/05 06:06:31;;;;;;;0.10;0.10;;;6.50;81.50;;;;;;5032922;28;20033;-76
2023/12/05 06:08:57;;;;;;;0.10;0.10;;;6.40;81.30;;;;;;5034349;28;20028;-74
2023/12/05 06:11:23;;;;;;;0.10;0.10;;;6.40;81.30;;;;;;5034739;28;20120;-73
2023/12/05 06:13:48;;;;;;;0.10;0.10;;;6.40;81.40;;;;;;5031599;28;20026;-76
2023/12/05 06:16:14;;;;;;;0.10;0.10;;;6.40;81.30;;;;;;5027113;28;20026;-75
2023/12/05 06:18:39;;;;;;;0.10;0.10;;;6.50;81.50;;;;;;5017360;28;20055;-74
2023/12/05 06:21:05;;;;;;;0.10;0.10;;;6.50;81.40;;;;;;5037153;28;20032;-75
2023/12/05 06:23:31;;;;;;;0.10;0.10;;;6.60;81.40;;;;;;5037388;28;20108;-76
2023/12/05 06:25:57;;;;;;;0.10;0.10;;;6.60;81.40;;;;;;5018087;28;20052;-78
2023/12/05 06:28:22;;;;;;;0.10;0.10;;;6.60;81.30;;;;;;5019624;28;20032;-78
2023/12/05 06:30:48;;;;;;;0.10;0.10;;;6.60;81.20;;;;;;5036303;28;20057;-78
2023/12/05 06:33:14;;;;;;;0.10;0.10;;;6.60;81.20;;;;;;5036469;28;20547;-78
2023/12/05 06:35:39;;;;;;;0.10;0.10;;;6.60;81.30;;;;;;5018190;28;20044;-78
2023/12/05 06:38:08;;;;;;;0.10;0.10;;;6.50;81.70;;;;;;5035341;28;20053;-79
2023/12/05 06:40:34;;;;;;;0.10;0.10;;;6.60;81.80;;;;;;5035870;28;20109;-78
2023/12/05 06:42:59;;;;;;;0.10;0.10;;;6.70;81.90;;;;;;5036519;28;20552;-79
2023/12/05 06:45:25;;;;;;;0.10;0.10;;;6.70;82.00;;;;;;5034995;28;20037;-80
2023/12/05 06:47:50;;;;;;;0.10;0.10;;;6.70;82.20;;;;;;5036983;28;20021;-80
2023/12/05 06:50:16;;;;;;;0.10;0.10;;;6.70;82.20;;;;;;5036396;28;20053;-79
2023/12/05 06:52:42;;;;;;;0.10;0.10;;;6.70;82.20;;;;;;5018188;28;20088;-79
2023/12/05 06:55:09;;;;;;;0.10;0.10;;;6.70;82.30;;;;;;5036009;28;20075;-80
2023/12/05 06:57:34;;;;;;;0.10;0.10;;;6.60;82.30;;;;;;5031712;28;20052;-79
2023/12/05 07:00:00;;;;;;;0.10;0.10;;;6.50;82.30;;;;;;5035193;28;20045;-80
2023/12/05 07:02:26;;;;;;;0.10;0.10;;;6.50;82.50;;;;;;5017876;28;20044;-80
2023/12/05 07:04:51;;;;;;;0.10;0.10;;;6.50;82.40;;;;;;5018390;28;20040;-80
2023/12/05 07:07:17;;;;;;;0.10;0.10;;;6.40;82.40;;;;;;5034935;28;20025;-80
2023/12/05 07:09:42;;;;;;;0.10;0.10;;;6.30;82.40;;;;;;5042742;28;20111;-80
2023/12/05 07:12:09;;;;;;;0.10;0.10;;;6.40;82.50;;;;;;5056301;28;20059;-79
2023/12/05 07:14:37;;;;;;;0.10;0.10;;;6.30;82.40;;;;;;5023660;28;20038;-80
2023/12/05 07:17:03;;;;;;;0.10;0.10;;;6.30;82.40;;;;;;5016693;28;20022;-80
2023/12/05 07:19:28;;;;;;;0.10;0.10;;;6.30;82.50;;;;;;5016224;28;20397;-80
2023/12/05 07:21:54;;;;;;;0.10;0.10;;;6.30;82.50;;;;;;5030740;28;20029;-80
2023/12/05 07:24:20;;;;;;;0.10;0.10;;;6.20;82.70;;;;;;5035208;28;20037;-80
2023/12/05 07:26:46;;;;;;;0.10;0.10;;;6.20;82.60;;;;;;5017711;28;20064;-80
2023/12/05 07:29:13;;;;;;;0.10;0.10;;;6.20;82.40;;;;;;5036364;28;20052;-80
2023/12/05 07:31:38;;;;;;;0.10;0.10;;;6.20;82.70;;;;;;5035697;28;20049;-80
2023/12/05 07:34:04;;;;;;;0.10;0.10;;;6.20;82.40;;;;;;5018347;28;20061;-80
2023/12/05 07:36:30;;;;;;;0.10;0.10;;;6.20;82.50;;;;;;5018044;28;20112;-79
2023/12/05 07:38:55;;;;;;;0.10;0.10;;;6.20;82.70;;;;;;5018705;28;20033;-80
2023/12/05 07:41:25;;;;;;;0.10;0.10;;;6.20;82.50;;;;;;5036235;28;20021;-80
2023/12/05 07:43:50;;;;;;;0.10;0.10;;;6.20;82.60;;;;;;5035783;28;20025;-80
2023/12/05 07:46:17;;;;;;;0.10;0.10;;;6.20;82.50;;;;;;5036471;28;20032;-80
2023/12/05 07:48:42;;;;;;;0.10;0.10;;;6.30;82.40;;;;;;5036101;28;20496;-80
2023/12/05 07:51:13;;;;;;;0.10;0.10;;;6.30;82.40;;;;;;5017623;28;20034;-80
2023/12/05 07:53:39;;;;;;;0.10;0.10;;;6.30;82.30;;;;;;5018122;28;20063;-80
2023/12/05 07:56:05;;;;;;;0.10;0.10;;;6.30;82.30;;;;;;5035446;28;20017;-79
2023/12/05 07:58:30;;;;;;;0.10;0.10;;;6.30;82.30;;;;;;5035745;28;20029;-80
2023/12/05 08:00:56;;;;;;;0.10;0.10;;;6.30;82.30;;;;;;5035457;28;20025;-80
2023/12/05 08:03:22;;;;;;;0.17;0.17;;;6.30;82.30;;;;;;5035788;28;20030;-80
2023/12/05 08:05:47;;;;;;;0.10;0.10;;;6.30;82.10;;;;;;5035106;28;20033;-80
2023/12/05 08:08:13;;;;;;;0.10;0.10;;;6.40;82.10;;;;;;5035374;28;20151;-80
2023/12/05 08:10:38;;;;;;;0.20;0.20;;;6.40;81.90;;;;;;5050395;28;20036;-80
2023/12/05 08:13:04;;;;;;;0.10;0.10;;;6.40;82.00;;;;;;5055726;28;20040;-80
2023/12/05 08:15:30;;;;;;;0.10;0.10;;;6.40;81.90;;;;;;5041020;28;20029;-79
2023/12/05 08:17:55;;;;;;;0.10;0.10;;;6.40;82.10;;;;;;5035243;28;20033;-79
2023/12/05 08:20:21;;;;;;;0.10;0.10;;;6.40;81.90;;;;;;5035299;28;20052;-79
2023/12/05 08:22:46;;;;;;;0.10;0.10;;;6.40;81.90;;;;;;5032382;28;20045;-79
2023/12/05 08:25:12;;;;;;;0.10;0.10;;;6.50;81.90;;;;;;5034797;28;20045;-79
2023/12/05 08:27:37;;;;;;;0.10;0.10;;;6.50;81.90;;;;;;5035475;28;20030;-79
2023/12/05 08:30:04;;;;;;;0.10;0.10;;;6.60;81.80;;;;;;5035173;28;20029;-79
2023/12/05 08:32:30;;;;;;;0.10;0.10;;;6.60;81.70;;;;;;5034993;28;20058;-79
2023/12/05 08:34:56;;;;;;;0.10;0.10;;;6.60;81.70;;;;;;5034953;28;20026;-79
2023/12/05 08:37:22;;;;;;;0.10;0.10;;;6.60;81.70;;;;;;5016199;28;20116;-79
2023/12/05 08:39:48;;;;;;;0.10;0.10;;;6.60;81.50;;;;;;5017213;28;20025;-78
2023/12/05 08:42:14;;;;;;;0.10;0.10;;;6.60;81.50;;;;;;5035128;28;20418;-80
2023/12/05 08:44:39;;;;;;;0.10;0.10;;;6.70;81.40;;;;;;5013207;28;20025;-81
2023/12/05 08:47:05;;;;;;;0.10;0.10;;;6.70;81.50;;;;;;5015250;28;20030;-79
2023/12/05 08:49:30;;;;;;;0.10;0.10;;;6.70;81.40;;;;;;5031277;28;20029;-80
2023/12/05 08:51:56;;;;;;;0.20;0.20;;;6.70;81.30;;;;;;5034970;28;20079;-80
2023/12/05 08:54:22;;;;;;;0.10;0.10;;;6.80;81.20;;;;;;5034408;28;20068;-81
2023/12/05 08:56:47;;;;;;;0.10;0.10;;;6.80;81.20;;;;;;5017320;28;20036;-80
2023/12/05 08:59:13;;;;;;;0.10;0.10;;;6.90;81.10;;;;;;5034053;28;20055;-81
2023/12/05 09:01:39;;;;;;;0.10;0.10;;;6.90;80.80;;;;;;5031554;28;20032;-81
2023/12/05 09:04:04;;;;;;;0.10;0.10;;;7.00;80.50;;;;;;5017113;28;20033;-81
2023/12/05 09:06:30;;;;;;;0.32;0.32;;;7.10;80.40;;;;;;5034578;28;20033;-81
2023/12/05 09:08:57;;;;;;;0.20;0.20;;;7.20;80.10;;;;;;5016465;28;20037;-81
2023/12/05 09:11:23;;;;;;;0.10;0.10;;;7.40;79.80;;;;;;5036612;28;20029;-80
2023/12/05 09:13:49;;;;;;;0.10;0.10;;;7.50;79.30;;;;;;5048165;28;20044;-81
2023/12/05 09:16:14;;;;;;;0.10;0.10;;;7.50;79.30;;;;;;5034559;28;20033;-81
2023/12/05 09:18:40;;;;;;;0.10;0.10;;;7.50;79.30;;;;;;5016057;28;20074;-81
2023/12/05 09:21:06;;;;;;;0.10;0.10;;;7.60;79.60;;;;;;5016501;28;20079;-81
2023/12/05 09:23:32;;;;;;;0.20;0.20;;;7.70;80.00;;;;;;5034665;28;20013;-81
2023/12/05 09:25:58;;;;;;;0.10;0.10;;;7.70;80.30;;;;;;5034326;28;20034;-81
2023/12/05 09:28:23;;;;;;;0.10;0.10;;;7.70;80.60;;;;;;5016168;28;20068;-80
2023/12/05 09:30:49;;;;;;;0.10;0.10;;;7.80;80.40;;;;;;5015038;28;20065;-81
2023/12/05 09:33:14;;;;;;;0.10;0.10;;;7.90;80.10;;;;;;5016441;28;20079;-81
2023/12/05 09:35:40;;;;;;;0.10;0.10;;;7.80;80.00;;;;;;5033643;28;20592;-81
2023/12/05 09:38:07;;;;;;;0.10;0.10;;;7.80;79.90;;;;;;5035322;28;20018;-81
2023/12/05 09:40:33;;;;;;;0.10;0.10;;;7.70;80.00;;;;;;5035279;28;20022;-81
2023/12/05 09:43:00;;;;;;;0.10;0.10;;;7.70;79.70;;;;;;5018433;28;20021;-80
2023/12/05 09:45:33;;;;;;;0.10;0.10;;;7.70;80.00;;;;;;5018044;28;20026;-81
2023/12/05 09:48:00;;;;;;;0.10;0.10;;;7.70;80.20;;;;;;5017027;28;20025;-80
2023/12/05 09:50:28;;;;;;;0.20;0.20;;;7.80;80.00;;;;;;5035666;28;20034;-81
2023/12/05 09:52:55;;;;;;;0.20;0.20;;;7.80;80.30;;;;;;5035172;28;20030;-81
2023/12/05 09:55:21;;;;;;;0.10;0.10;;;7.80;80.10;;;;;;5035102;28;20079;-81
2023/12/05 09:57:48;;;;;;;0.10;0.10;;;7.90;79.90;;;;;;5036011;28;20060;-81
2023/12/05 10:00:14;;;;;;;0.10;0.10;;;8.00;79.90;;;;;;5035666;28;20056;-78
2023/12/05 10:02:40;;;;;;;0.20;0.20;;;8.10;79.60;;;;;;5016876;28;20033;-78
2023/12/05 10:05:08;;;;;;;0.20;0.20;;;8.10;79.50;;;;;;5035610;28;20021;-80
2023/12/05 10:07:34;;;;;;;0.10;0.10;;;8.20;79.40;;;;;;5014101;28;20097;-81
2023/12/05 10:10:02;;;;;;;0.10;0.10;;;8.20;79.50;;;;;;5025902;28;20470;-81
2023/12/05 10:12:28;;;;;;;0.10;0.10;;;8.20;79.10;;;;;;5017794;28;20055;-80
2023/12/05 10:14:54;;;;;;;0.10;0.10;;;8.30;78.90;;;;;;5035403;28;20435;-81
2023/12/05 10:17:21;;;;;;;0.10;0.10;;;8.30;78.80;;;;;;5035902;28;20053;-81
2023/12/05 10:19:46;;;;;;;0.10;0.10;;;8.30;78.40;;;;;;5034785;28;20030;-81
2023/12/05 10:22:12;;;;;;;0.10;0.10;;;8.30;78.10;;;;;;5017827;28;20029;-81
2023/12/05 10:24:41;;;;;;;0.10;0.10;;;8.40;78.00;;;;;;5033725;28;20033;-81
2023/12/05 10:27:07;;;;;;;0.10;0.10;;;8.40;78.30;;;;;;5015726;28;20030;-81
2023/12/05 10:29:38;;;;;;;0.10;0.10;;;8.50;78.10;;;;;;4998054;28;20097;-81
2023/12/05 10:32:05;;;;;;;0.10;0.10;;;8.60;78.00;;;;;;4997854;28;20054;-80
2023/12/05 10:34:44;;;;;;;0.10;0.10;;;8.60;77.80;;;;;;5010068;28;20041;-81
2023/12/05 10:37:10;;;;;;;0.10;0.10;;;8.70;77.90;;;;;;5035371;28;20033;-80
2023/12/05 10:39:36;;;;;;;0.10;0.10;;;8.70;77.70;;;;;;5017459;28;20033;-81
2023/12/05 10:42:02;;;;;;;0.10;0.10;;;8.70;77.30;;;;;;5017834;28;20021;-80
2023/12/05 10:44:27;;;;;;;0.10;0.10;;;8.80;77.30;;;;;;5016894;28;20034;-81
2023/12/05 10:46:56;;;;;;;0.10;0.10;;;8.80;76.90;;;;;;5035182;28;20091;-80
2023/12/05 10:49:22;;;;;;;0.10;0.10;;;8.80;77.20;;;;;;5034615;28;20034;-81
2023/12/05 10:51:49;;;;;;;0.10;0.10;;;8.90;77.10;;;;;;5035244;28;20453;-81
2023/12/05 10:54:16;;;;;;;0.22;0.10;;;9.00;77.00;;;;;;5035087;28;20055;-81
2023/12/05 10:56:56;;;;;;;0.10;0.10;;;8.90;76.90;;;;;;5016346;28;20021;-81
2023/12/05 10:59:27;;;;;;;0.15;0.15;;;8.80;77.30;;;;;;5033308;28;20029;-79
2023/12/05 11:01:56;;;;;;;0.10;0.10;;;8.90;77.00;;;;;;5020796;28;20109;-81
2023/12/05 11:04:25;;;;;;;0.10;0.10;;;9.10;77.00;;;;;;5019249;28;20496;-79
2023/12/05 11:06:52;;;;;;;0.10;0.10;;;9.10;76.80;;;;;;5038699;28;20045;-79
2023/12/05 11:09:18;;;;;;;0.10;0.10;;;9.10;76.80;;;;;;5021002;28;20064;-79
2023/12/05 11:11:46;;;;;;;0.10;0.10;;;9.20;76.70;;;;;;5038926;28;20025;-79
2023/12/05 11:14:14;;;;;;;0.10;0.10;;;9.40;76.80;;;;;;5038698;28;20025;-80
2023/12/05 11:16:48;;;;;;;0.10;0.10;;;9.50;76.60;;;;;;5037288;28;20041;-79
2023/12/05 11:19:22;;;;;;;;;;;9.70;76.20;;;;;;5030060;28;20029;-79
2023/12/05 11:22:25;;;;;;;0.10;0.10;;;9.60;75.80;;;;;;5038482;28;19937;-79
2023/12/05 11:25:08;;;;;;;0.10;0.10;;;9.70;76.10;;;;;;5018742;28;20025;-79
2023/12/05 11:27:34;;;;;;;0.10;0.10;;;9.60;76.20;;;;;;5001214;28;20057;-79
2023/12/05 11:30:11;;;;;;;0.10;0.10;;;9.60;76.30;;;;;;5008647;28;20037;-79
2023/12/05 11:32:46;;;;;;;0.10;0.10;;;9.70;76.40;;;;;;5018151;28;20054;-79
2023/12/05 11:35:26;;;;;;;0.10;0.10;;;9.70;76.30;;;;;;5019898;28;20033;-79
2023/12/05 11:38:04;;;;;;;0.10;0.10;;;9.80;76.40;;;;;;5018413;28;20393;-79
2023/12/05 11:40:29;;;;;;;0.10;0.10;;;10.00;76.10;;;;;;5033713;28;20031;-79
2023/12/05 11:43:09;;;;;;;0.10;0.10;;;10.30;75.90;;;;;;5038011;28;20040;-79
2023/12/05 11:45:44;;;;;;;0.10;0.10;;;10.40;75.50;;;;;;5037915;28;20018;-79
2023/12/05 11:48:13;;;;;;;0.10;0.10;;;10.40;75.40;;;;;;5037650;28;20025;-79
2023/12/05 11:50:47;;;;;;;0.10;0.10;;;10.30;75.60;;;;;;5017950;28;20022;-79
2023/12/05 11:53:17;;;;;;;0.10;0.10;;;10.30;75.70;;;;;;5017963;28;20034;-79
2023/12/05 11:55:47;;;;;;;0.10;0.10;;;10.20;75.80;;;;;;5018276;28;20449;-79
2023/12/05 11:58:32;;;;;;;0.10;0.10;;;10.00;76.00;;;;;;5030762;28;20030;-79
2023/12/05 12:01:05;;;;;;;0.10;0.10;;;10.00;76.20;;;;;;5037729;28;20021;-79
2023/12/05 12:03:54;;;;;;;0.10;0.10;;;10.10;76.00;;;;;;5037675;28;20029;-79
2023/12/05 12:06:23;;;;;;;0.10;0.10;;;10.10;76.20;;;;;;5001382;28;20022;-79
2023/12/05 12:08:51;;;;;;;0.10;0.10;;;10.10;75.90;;;;;;5037700;28;20034;-79
2023/12/05 12:11:18;;;;;;;0.10;0.10;;;10.20;76.20;;;;;;5016867;28;20018;-79
2023/12/05 12:13:43;;;;;;;0.10;0.10;;;10.20;75.90;;;;;;5000381;28;20532;-79
2023/12/05 12:16:18;;;;;;;0.10;0.10;;;10.20;75.40;;;;;;5019701;28;20029;-79
2023/12/05 12:18:44;;;;;;;0.10;0.10;;;10.30;75.30;;;;;;5019163;28;20063;-79
2023/12/05 12:21:10;;;;;;;0.10;0.10;;;10.50;75.20;;;;;;5019289;28;20079;-79
2023/12/05 12:23:36;;;;;;;0.10;0.10;;;10.70;74.70;;;;;;5035030;28;20030;-79
2023/12/05 12:26:02;;;;;;;0.10;0.10;;;10.90;74.10;;;;;;5018906;28;20018;-79
2023/12/05 12:28:29;;;;;;;0.10;0.10;;;11.00;74.00;;;;;;5017680;28;20061;-79
2023/12/05 12:30:59;;;;;;;0.10;0.10;;;10.90;73.60;;;;;;5023489;28;20053;-79
2023/12/05 12:33:46;;;;;;;0.10;0.10;;;10.90;73.50;;;;;;5037041;28;20029;-79
2023/12/05 12:36:12;;;;;;;0.10;0.10;;;10.90;73.00;;;;;;5036762;28;20033;-79
2023/12/05 12:38:39;;;;;;;0.10;0.10;;;10.80;72.50;;;;;;5019160;28;20029;-79
2023/12/05 12:41:05;;;;;;;0.10;0.10;;;10.70;72.70;;;;;;5036445;28;20021;-79
2023/12/05 12:43:33;;;;;;;0.10;0.10;;;10.70;73.40;;;;;;5018894;28;20032;-79
2023/12/05 12:45:59;;;;;;;0.10;0.10;;;10.80;74.00;;;;;;5019048;28;20033;-78
2023/12/05 12:48:25;;;;;;;0.10;0.10;;;10.60;73.80;;;;;;5019146;28;20440;-79
2023/12/05 12:50:51;;;;;;;0.10;0.10;;;10.60;74.30;;;;;;5036122;28;20032;-79
2023/12/05 12:53:17;;;;;;;0.10;0.10;;;10.40;74.20;;;;;;5036498;28;20037;-79
2023/12/05 12:55:43;;;;;;;0.10;0.10;;;10.30;74.60;;;;;;5036248;28;20030;-79
2023/12/05 12:58:08;;;;;;;0.10;0.10;;;10.20;75.00;;;;;;5019969;28;20033;-79
2023/12/05 13:00:38;;;;;;;0.10;0.10;;;10.20;74.80;;;;;;5014660;28;20022;-79
2023/12/05 13:03:05;;;;;;;0.15;0.15;;;10.00;74.80;;;;;;5018242;28;20048;-79
2023/12/05 13:05:38;;;;;;;0.10;0.10;;;9.90;75.00;;;;;;5036318;28;20022;-79
2023/12/05 13:08:04;;;;;;;0.10;0.10;;;10.00;75.00;;;;;;5036510;28;20526;-79
2023/12/05 13:10:31;;;;;;;0.10;0.10;;;10.20;75.00;;;;;;5050111;28;20059;-79
2023/12/05 13:13:04;;;;;;;0.10;0.10;;;10.20;74.50;;;;;;5037886;28;20439;-79
2023/12/05 13:15:30;;;;;;;0.20;0.17;;;10.20;74.30;;;;;;5036357;28;20029;-79
2023/12/05 13:17:58;;;;;;;0.10;0.10;;;10.30;74.70;;;;;;5018464;28;20029;-79
2023/12/05 13:20:23;;;;;;;0.10;0.10;;;10.30;73.60;;;;;;5035501;28;20029;-79
2023/12/05 13:22:50;;;;;;;0.10;0.10;;;10.20;74.20;;;;;;5035293;28;20033;-79
2023/12/05 13:25:15;;;;;;;0.10;0.10;;;10.20;74.20;;;;;;5018241;28;20025;-79
2023/12/05 13:27:41;;;;;;;0.10;0.10;;;10.20;74.30;;;;;;5017930;28;20048;-79
2023/12/05 13:30:07;;;;;;;0.10;0.10;;;10.10;74.30;;;;;;5018125;28;20081;-79
2023/12/05 13:32:34;;;;;;;0.10;0.10;;;10.20;74.30;;;;;;5036096;28;20099;-79
2023/12/05 13:35:00;;;;;;;0.10;0.10;;;10.20;74.20;;;;;;5035501;28;20033;-80
2023/12/05 13:37:25;;;;;;;0.10;0.10;;;10.20;74.30;;;;;;5018058;28;20520;-80
2023/12/05 13:39:51;;;;;;;0.10;0.10;;;10.10;73.60;;;;;;5018359;28;20029;-80
2023/12/05 13:42:16;;;;;;;0.10;0.10;;;10.10;73.90;;;;;;5018133;28;20048;-80
2023/12/05 13:44:43;;;;;;;0.10;0.10;;;10.20;73.60;;;;;;5017157;28;20029;-80
2023/12/05 13:47:09;;;;;;;0.10;0.10;;;10.20;73.50;;;;;;5035904;28;20041;-80
2023/12/05 13:49:37;;;;;;;0.10;0.10;;;10.10;73.90;;;;;;5017822;28;20131;-79
2023/12/05 13:52:03;;;;;;;0.10;0.10;;;10.10;74.30;;;;;;5017391;28;20029;-80
2023/12/05 13:54:29;;;;;;;0.10;0.10;;;10.10;74.30;;;;;;5017267;28;20044;-79
2023/12/05 13:56:56;;;;;;;0.17;0.17;;;10.10;73.80;;;;;;5035939;28;20037;-79
2023/12/05 13:59:21;;;;;;;0.10;0.10;;;10.20;74.10;;;;;;5035756;28;20039;-80
2023/12/05 14:01:47;;;;;;;0.10;0.10;;;10.30;73.60;;;;;;5035603;28;20061;-80
2023/12/05 14:04:16;;;;;;;0.10;0.10;;;10.40;73.50;;;;;;5017211;28;20039;-80
2023/12/05 14:06:42;;;;;;;0.10;0.10;;;10.70;73.00;;;;;;5035414;28;20021;-79
2023/12/05 14:09:09;;;;;;;0.10;0.10;;;10.90;72.20;;;;;;5020033;28;20033;-80
2023/12/05 14:11:35;;;;;;;0.10;0.10;;;11.10;71.20;;;;;;5037608;28;20021;-80
2023/12/05 14:14:05;;;;;;;0.10;0.10;;;11.20;70.40;;;;;;5048924;28;20060;-80
2023/12/05 14:16:31;;;;;;;0.10;0.10;;;11.30;69.80;;;;;;5035564;28;20022;-80
2023/12/05 14:18:57;;;;;;;0.10;0.10;;;11.20;69.60;;;;;;5029640;28;20432;-80
2023/12/05 14:21:22;;;;;;;0.10;0.10;;;11.20;70.40;;;;;;5015828;28;20025;-80
2023/12/05 14:23:48;;;;;;;0.10;0.10;;;11.20;70.70;;;;;;5014501;28;20713;-80
2023/12/05 14:26:14;;;;;;;0.10;0.10;;;11.00;69.90;;;;;;5017755;28;20034;-79
2023/12/05 14:28:39;;;;;;;0.10;0.10;;;10.90;69.70;;;;;;5035660;28;20067;-79
2023/12/05 14:31:05;;;;;;;0.10;0.10;;;10.90;69.20;;;;;;5034540;28;20144;-79
2023/12/05 14:33:30;;;;;;;0.10;0.10;;;10.90;68.50;;;;;;5017670;28;20029;-79
2023/12/05 14:35:56;;;;;;;0.10;0.10;;;10.90;68.60;;;;;;5039209;28;20108;-80
2023/12/05 14:38:22;;;;;;;0.10;0.10;;;10.80;68.40;;;;;;5021323;28;20378;-79
2023/12/05 14:40:47;;;;;;;0.10;0.10;;;10.80;69.20;;;;;;5020804;28;20591;-79
2023/12/05 14:43:13;;;;;;;0.10;0.10;;;10.80;68.80;;;;;;5038523;28;20032;-80
2023/12/05 14:45:39;;;;;;;0.10;0.10;;;10.80;68.60;;;;;;5039167;28;20060;-80
2023/12/05 14:48:05;;;;;;;0.10;0.10;;;11.00;68.70;;;;;;5039369;28;20392;-80
2023/12/05 14:50:31;;;;;;;0.10;0.10;;;11.10;68.40;;;;;;5021048;28;20452;-80
2023/12/05 14:52:57;;;;;;;0.10;0.10;;;11.20;68.10;;;;;;5020954;28;20032;-80
2023/12/05 14:55:22;;;;;;;0.10;0.10;;;11.20;68.40;;;;;;5021177;28;20025;-80
2023/12/05 14:57:48;;;;;;;0.10;0.10;;;11.20;68.70;;;;;;5038251;28;20057;-80
2023/12/05 15:00:17;;;;;;;0.10;0.10;;;11.10;68.40;;;;;;5035497;28;20032;-80
2023/12/05 15:02:43;;;;;;;0.10;0.10;;;11.00;68.00;;;;;;5021152;28;20493;-80
2023/12/05 15:05:08;;;;;;;0.10;0.10;;;11.00;67.50;;;;;;5038518;28;20473;-80
2023/12/05 15:07:34;;;;;;;0.10;0.10;;;10.90;68.00;;;;;;5037794;28;20048;-80
2023/12/05 15:10:00;;;;;;;0.10;0.10;;;10.80;67.70;;;;;;5048075;28;20084;-80
2023/12/05 15:12:25;;;;;;;0.10;0.10;;;10.80;68.40;;;;;;5017099;28;20038;-80
2023/12/05 15:14:51;;;;;;;0.10;0.10;;;10.80;68.90;;;;;;5018861;28;20307;-80
2023/12/05 15:17:17;;;;;;;0.10;0.10;;;10.70;68.70;;;;;;5018923;28;20033;-80
2023/12/05 15:19:43;;;;;;;0.10;0.10;;;10.70;68.80;;;;;;5018902;28;20037;-80
2023/12/05 15:22:08;;;;;;;0.10;0.10;;;10.50;68.50;;;;;;5017309;28;20044;-80
2023/12/05 15:24:34;;;;;;;0.10;0.10;;;10.50;68.80;;;;;;5018690;28;20474;-80
2023/12/05 15:27:01;;;;;;;0.10;0.10;;;10.50;69.10;;;;;;5020115;28;20029;-80
2023/12/05 15:29:27;;;;;;;0.10;0.10;;;10.50;69.30;;;;;;5020528;28;20120;-79
2023/12/05 15:31:52;;;;;;;0.10;0.10;;;10.50;69.20;;;;;;5037620;28;20065;-80
2023/12/05 15:34:19;;;;;;;0.10;0.10;;;10.50;69.70;;;;;;5020679;28;20034;-79
2023/12/05 15:36:45;;;;;;;0.10;0.10;;;10.50;69.90;;;;;;5038251;28;20032;-80
2023/12/05 15:39:11;;;;;;;0.10;0.10;;;10.50;70.00;;;;;;5037404;28;20654;-80
2023/12/05 15:41:36;;;;;;;0.10;0.10;;;10.40;70.30;;;;;;5038007;28;20026;-80
2023/12/05 15:44:02;;;;;;;0.00;0.00;;;10.30;70.60;;;;;;5038067;28;20045;-79
2023/12/05 15:46:28;;;;;;;0.10;0.10;;;10.30;71.00;;;;;;5036596;28;20034;-80
2023/12/05 15:48:54;;;;;;;0.10;0.10;;;10.30;71.00;;;;;;5037994;28;20033;-80
2023/12/05 15:51:19;;;;;;;0.10;0.10;;;10.30;71.20;;;;;;5037362;28;20029;-80
2023/12/05 15:53:45;;;;;;;0.10;0.10;;;10.20;71.80;;;;;;5038034;28;20038;-80
2023/12/05 15:56:15;;;;;;;0.10;0.10;;;10.20;71.60;;;;;;5038048;28;20033;-80
2023/12/05 15:58:41;;;;;;;0.10;0.10;;;10.20;71.60;;;;;;5037712;28;20108;-80
2023/12/05 16:01:07;;;;;;;0.10;0.10;;;10.10;71.90;;;;;;5037253;28;20059;-80
2023/12/05 16:03:33;;;;;;;0.10;0.10;;;10.10;72.00;;;;;;5037088;28;20450;-80
2023/12/05 16:05:59;;;;;;;0.10;0.10;;;10.10;72.30;;;;;;5019709;28;20464;-80
2023/12/05 16:08:25;;;;;;;0.10;0.10;;;10.00;72.30;;;;;;5019132;28;20025;-80
2023/12/05 16:10:52;;;;;;;0.10;0.10;;;10.00;72.50;;;;;;5054390;28;20036;-80
2023/12/05 16:13:18;;;;;;;0.10;0.10;;;10.00;72.50;;;;;;5053527;28;20063;-79
2023/12/05 16:15:43;;;;;;;0.10;0.10;;;9.90;72.60;;;;;;5037483;28;20033;-80
2023/12/05 16:18:09;;;;;;;0.10;0.10;;;9.90;72.80;;;;;;5036570;28;20094;-80
2023/12/05 16:20:35;;;;;;;0.10;0.10;;;9.90;72.70;;;;;;5037361;28;20056;-80
2023/12/05 16:23:01;;;;;;;0.10;0.10;;;9.80;73.10;;;;;;5037054;28;20485;-80
2023/12/05 16:25:27;;;;;;;0.10;0.10;;;9.80;73.20;;;;;;5034341;28;20052;-80
2023/12/05 16:27:52;;;;;;;0.10;0.10;;;9.80;73.40;;;;;;5035008;28;20022;-80
2023/12/05 16:30:18;;;;;;;0.10;0.10;;;9.80;73.10;;;;;;5036337;28;20033;-80
2023/12/05 16:32:44;;;;;;;0.10;0.10;;;9.80;73.00;;;;;;5037023;28;20041;-80
2023/12/05 16:35:10;;;;;;;0.10;0.10;;;9.80;73.40;;;;;;5037046;28;20034;-80
2023/12/05 16:37:37;;;;;;;0.10;0.10;;;9.80;73.40;;;;;;5019519;28;20480;-80
2023/12/05 16:40:04;;;;;;;0.10;0.10;;;9.80;73.30;;;;;;5036592;28;20036;-79
2023/12/05 16:42:30;;;;;;;0.10;0.10;;;9.70;73.40;;;;;;5019187;28;20028;-80
2023/12/05 16:44:55;;;;;;;0.10;0.10;;;9.70;73.20;;;;;;5037120;28;21062;-80
2023/12/05 16:47:21;;;;;;;0.20;0.20;;;9.70;73.30;;;;;;5036929;28;20018;-79
2023/12/05 16:49:47;;;;;;;0.10;0.10;;;9.70;73.40;;;;;;5036417;28;20508;-80
2023/12/05 16:52:12;;;;;;;0.10;0.10;;;9.60;73.80;;;;;;5036832;28;20100;-80
2023/12/05 16:54:38;;;;;;;0.10;0.10;;;9.60;73.40;;;;;;5036613;28;20035;-80
2023/12/05 16:57:04;;;;;;;0.10;0.10;;;9.70;73.80;;;;;;5018732;28;20500;-79
2023/12/05 16:59:29;;;;;;;0.10;0.10;;;9.60;73.50;;;;;;5036199;28;20113;-79
2023/12/05 17:01:55;;;;;;;0.10;0.10;;;9.60;74.00;;;;;;5035577;28;20036;-79
2023/12/05 17:04:21;;;;;;;0.10;0.10;;;9.50;73.80;;;;;;5028530;28;20037;-80
2023/12/05 17:06:46;;;;;;;0.10;0.10;;;9.50;74.00;;;;;;5018042;28;20022;-80
2023/12/05 17:09:18;;;;;;;0.10;0.10;;;9.40;74.20;;;;;;5018815;28;20516;-80
2023/12/05 17:11:44;;;;;;;0.10;0.10;;;9.40;74.20;;;;;;5036575;28;20539;-79
2023/12/05 17:14:10;;;;;;;0.10;0.10;;;9.30;74.50;;;;;;5018771;28;20030;-78
2023/12/05 17:16:35;;;;;;;0.10;0.10;;;9.30;74.60;;;;;;5014952;28;20598;-78
2023/12/05 17:19:01;;;;;;;0.10;0.10;;;9.30;74.80;;;;;;5016542;28;20468;-78
2023/12/05 17:21:26;;;;;;;0.10;0.10;;;9.30;75.00;;;;;;5020264;28;20064;-80
2023/12/05 17:23:54;;;;;;;0.10;0.10;;;9.20;75.00;;;;;;5034757;28;20063;-81
2023/12/05 17:26:20;;;;;;;0.10;0.10;;;9.20;75.10;;;;;;5035638;28;20013;-80
2023/12/05 17:28:47;;;;;;;0.10;0.10;;;9.30;75.10;;;;;;5034618;28;20570;-80
2023/12/05 17:31:13;;;;;;;0.10;0.10;;;9.30;75.10;;;;;;5032360;28;20045;-80
2023/12/05 17:33:38;;;;;;;0.10;0.10;;;9.20;75.00;;;;;;5030132;28;20042;-80
2023/12/05 17:36:04;;;;;;;0.10;0.10;;;9.30;75.30;;;;;;5022044;28;20026;-80
2023/12/05 17:38:30;;;;;;;0.10;0.10;;;9.20;75.20;;;;;;5014938;28;20435;-80
2023/12/05 17:40:55;;;;;;;0.10;0.10;;;9.20;75.20;;;;;;5026029;28;20036;-80
2023/12/05 17:43:24;;;;;;;0.10;0.10;;;9.10;75.70;;;;;;5033574;28;20037;-77
2023/12/05 17:45:49;;;;;;;0.10;0.10;;;9.10;75.80;;;;;;5033762;28;20452;-77
2023/12/05 17:48:15;;;;;;;0.10;0.10;;;9.00;76.20;;;;;;5034123;28;20021;-78
2023/12/05 17:50:41;;;;;;;0.05;0.05;;;9.00;76.30;;;;;;5027862;28;20018;-78
2023/12/05 17:53:07;;;;;;;0.10;0.10;;;9.00;76.30;;;;;;5018880;28;20565;-77
2023/12/05 17:55:33;;;;;;;0.10;0.10;;;9.00;76.70;;;;;;5008901;28;20458;-78
2023/12/05 17:57:58;;;;;;;0.10;0.10;;;8.90;76.80;;;;;;5009300;28;20375;-76
2023/12/05 18:00:24;;;;;;;0.10;0.10;;;8.90;76.90;;;;;;5027382;28;20044;-76
2023/12/05 18:02:50;;;;;;;0.10;0.10;;;8.90;77.00;;;;;;5026702;28;20029;-76
2023/12/05 18:05:16;;;;;;;0.22;0.10;;;8.90;77.10;;;;;;5024119;28;20152;-76
2023/12/05 18:07:42;;;;;;;0.10;0.10;;;9.00;77.40;;;;;;5022421;28;20053;-76
2023/12/05 18:10:08;;;;;;;0.10;0.10;;;9.00;77.80;;;;;;5032974;28;20024;-76
2023/12/05 18:12:33;;;;;;;0.10;0.10;;;9.10;78.10;;;;;;5035308;28;20033;-75
2023/12/05 18:14:59;;;;;;;0.10;0.10;;;9.00;78.40;;;;;;5007368;28;20018;-76
2023/12/05 18:17:25;;;;;;;0.10;0.10;;;9.00;78.80;;;;;;5025691;28;20177;-76
2023/12/05 18:19:51;;;;;;;0.10;0.10;;;9.00;79.20;;;;;;5022719;28;20083;-76
2023/12/05 18:22:19;;;;;;;0.10;0.10;;;9.10;79.50;;;;;;5022786;28;20057;-76